Michel Dsr — FLTE — position and weather

sailwx.info

Track history (hours):
 
Tides and Currents Weather Stations Pressure Air Temp Water Temp Dewpoint Dewpoint Depression Visibility Wind Speed Wind Dir Waves Ship Positions

Michel Dsr

Last reported at 2015-Aug-01 04:33 UTC. Time now 2015-Aug-01 05:49 UTC.
Position N 46°09' W 001°13'.

Length 80 m; draft 6 m.

Type: Dredging. MMSI: 228344700.

Date/timePositionNaut miles runAvg speedWind from/ knotsBaromVisibWave heightAir tempDewpointWater temp
2015-Aug-01 04:33N 46°09' W 001°13'0 0.0
2015-Aug-01 03:33N 46°09' W 001°13'0 0.0
2015-Aug-01 02:33N 46°09' W 001°13'0 0.1
2015-Aug-01 01:33N 46°10' W 001°13'5 5.3
2015-Aug-01 00:33N 46°06' W 001°19'8 7.6
2015-Jul-31 23:33N 46°07' W 001°29'8 7.8
2015-Jul-31 22:33N 46°12' W 001°38'7 7.2
2015-Jul-31 21:33N 46°17' W 001°46'7 7.1
2015-Jul-31 20:33N 46°22' W 001°52'7 7.1
2015-Jul-31 19:33N 46°28' W 001°58'7 7.1
2015-Jul-31 18:33N 46°34' W 002°04'7 7.0
2015-Jul-31 17:34N 46°40' W 002°10'7 6.9
2015-Jul-31 16:34N 46°45' W 002°16'20 4.0
2015-Jul-31 11:32N 47°05' W 002°21'0 0.2
2015-Jul-31 10:25N 47°05' W 002°22'0 0.4
2015-Jul-31 09:33N 47°05' W 002°21'17 8.1
2015-Jul-31 07:30N 47°18' W 002°07'1212.3
2015-Jul-31 06:33N 47°15' W 001°51'9 9.2
2015-Jul-31 05:34N 47°12' W 001°38'0 0.0
2015-Jul-31 04:34N 47°12' W 001°38'0 0.0
2015-Jul-31 03:33N 47°12' W 001°38'5 4.9
2015-Jul-31 02:33N 47°12' W 001°45'1110.4
2015-Jul-31 01:32N 47°17' W 001°59'1010.4
2015-Jul-31 00:34N 47°15' W 002°13'10 9.5
2015-Jul-30 23:34N 47°07' W 002°21'2 2.0
2015-Jul-30 22:33N 47°05' W 002°22'0 0.1
2015-Jul-30 21:33N 47°05' W 002°22'1 0.6
2015-Jul-30 20:33N 47°05' W 002°21'12 5.4
2015-Jul-30 18:19N 47°15' W 002°13'5 0.5
2015-Jul-30 07:30N 47°18' W 002°07'0 0.0
2015-Jul-30 06:33N 47°18' W 002°07'0 0.0
2015-Jul-30 05:31N 47°18' W 002°07'0 0.0
2015-Jul-30 04:33N 47°18' W 002°07'0 0.0
2015-Jul-30 03:26N 47°18' W 002°07'0 0.0
2015-Jul-30 02:32N 47°18' W 002°07'0 0.0
2015-Jul-30 01:33N 47°18' W 002°07'0 0.0
2015-Jul-30 00:33N 47°18' W 002°07'0 0.0
2015-Jul-29 23:32N 47°18' W 002°07'0 0.0
2015-Jul-29 07:22N 47°18' W 002°07'0 0.0
2015-Jul-29 06:31N 47°18' W 002°07'0 0.0
2015-Jul-29 05:33N 47°18' W 002°07'0 0.0
2015-Jul-29 04:33N 47°18' W 002°07'0 0.0
2015-Jul-29 03:32N 47°18' W 002°07'0 0.0
2015-Jul-29 02:33N 47°18' W 002°07'0 0.0
2015-Jul-29 01:33N 47°18' W 002°07'0 0.0
2015-Jul-29 00:33N 47°18' W 002°07'0 0.0
2015-Jul-28 23:33N 47°18' W 002°07'0 0.0
2015-Jul-28 22:33N 47°18' W 002°07'0 0.0
2015-Jul-28 21:32N 47°18' W 002°07'0 0.0
2015-Jul-28 16:33N 47°18' W 002°07'0 0.0
2015-Jul-28 07:07N 47°18' W 002°07'0 0.0
2015-Jul-27 21:09N 47°18' W 002°07'0 0.0
2015-Jul-27 15:24N 47°18' W 002°07'910.8
2015-Jul-27 14:34N 47°17' W 001°54'12 5.8
2015-Jul-27 12:30N 47°12' W 001°38'0 0.0
2015-Jul-27 11:32N 47°12' W 001°38'0 0.0
2015-Jul-27 10:28N 47°12' W 001°38'10 9.5
2015-Jul-27 09:25N 47°16' W 001°51'1310.5
2015-Jul-27 08:10N 47°17' W 002°10'711.5
2015-Jul-27 07:33N 47°12' W 002°17'7 6.6
2015-Jul-27 06:28N 47°05' W 002°22'0 0.5
2015-Jul-27 05:24N 47°05' W 002°21'0 0.0
2015-Jul-27 04:32N 47°05' W 002°21'0 0.0
2015-Jul-27 03:33N 47°05' W 002°21'9 6.0
2015-Jul-27 02:06N 47°13' W 002°16'611.5
2015-Jul-27 01:33N 47°18' W 002°09'2 0.1
2015-Jul-26 13:06N 47°18' W 002°07'0 0.0
2015-Jul-26 06:06N 47°18' W 002°07'0 0.0
2015-Jul-26 03:27N 47°18' W 002°07'0 0.0
2015-Jul-26 02:31N 47°18' W 002°07'0 0.0
2015-Jul-26 01:33N 47°18' W 002°07'0 0.0
2015-Jul-26 00:33N 47°18' W 002°07'0 0.0
2015-Jul-25 23:33N 47°18' W 002°07'0 0.0
2015-Jul-25 22:33N 47°18' W 002°07'0 0.0
2015-Jul-25 21:33N 47°18' W 002°07'0 0.0
2015-Jul-25 20:33N 47°18' W 002°07'0 0.0
2015-Jul-25 19:33N 47°18' W 002°07'8 6.8
2015-Jul-25 18:21N 47°13' W 002°16'911.1
2015-Jul-25 17:32N 47°05' W 002°21'1 0.4
2015-Jul-25 16:20N 47°05' W 002°22'0 0.2
2015-Jul-25 15:33N 47°05' W 002°22'8 0.4
2015-Jul-24 17:29N 47°13' W 002°17'9 9.1
2015-Jul-24 16:33N 47°05' W 002°21'0 0.1
2015-Jul-24 15:32N 47°05' W 002°21'0 0.2
2015-Jul-24 14:12N 47°05' W 002°22'0 0.5
2015-Jul-24 13:32N 47°05' W 002°21'25 8.5
2015-Jul-24 10:33N 47°16' W 002°54'1010.4
2015-Jul-24 09:34N 47°23' W 003°06'9 8.6
2015-Jul-24 08:33N 47°31' W 003°13'9 9.2
2015-Jul-24 07:33N 47°38' W 003°20'6 6.0
2015-Jul-24 06:33N 47°44' W 003°21'0 0.0
2015-Jul-24 05:33N 47°44' W 003°21'0 0.0
2015-Jul-24 04:33N 47°44' W 003°21'0 0.0
2015-Jul-24 03:33N 47°44' W 003°21'0 0.0
2015-Jul-24 02:33N 47°44' W 003°21'0 0.0
2015-Jul-24 01:33N 47°44' W 003°21'0 0.0
2015-Jul-24 00:33N 47°44' W 003°21'0 0.0
2015-Jul-23 23:33N 47°44' W 003°21'0 0.0
2015-Jul-23 22:33N 47°44' W 003°21'0 0.0
2015-Jul-23 21:33N 47°44' W 003°21'0 0.0
2015-Jul-23 20:33N 47°44' W 003°21'0 0.0
2015-Jul-23 19:33N 47°44' W 003°21'0 0.0
2015-Jul-23 18:33N 47°44' W 003°21'0 0.0
2015-Jul-23 17:33N 47°44' W 003°21'0 0.0
2015-Jul-23 16:33N 47°44' W 003°21'0 0.0
2015-Jul-23 15:33N 47°44' W 003°21'0 0.0
2015-Jul-23 14:33N 47°44' W 003°21'0 0.0
2015-Jul-23 13:33N 47°44' W 003°21'0 0.0
2015-Jul-23 12:33N 47°44' W 003°21'0 0.0
2015-Jul-23 11:33N 47°44' W 003°21'0 0.0
2015-Jul-23 10:33N 47°44' W 003°21'0 0.0
2015-Jul-23 09:33N 47°44' W 003°21'0 0.0
2015-Jul-23 08:33N 47°44' W 003°21'0 0.0
2015-Jul-23 07:33N 47°44' W 003°21'0 0.0
2015-Jul-23 06:33N 47°44' W 003°21'0 0.0
2015-Jul-23 05:33N 47°44' W 003°21'0 0.0
2015-Jul-23 04:33N 47°44' W 003°21'0 0.0
2015-Jul-23 03:33N 47°44' W 003°21'0 0.0
2015-Jul-23 02:33N 47°44' W 003°21'0 0.0
2015-Jul-23 01:33N 47°44' W 003°21'0 0.0
2015-Jul-23 00:33N 47°44' W 003°21'0 0.0
2015-Jul-22 23:33N 47°44' W 003°21'0 0.0
2015-Jul-22 22:33N 47°44' W 003°21'0 0.0
2015-Jul-22 21:33N 47°44' W 003°21'0 0.0
2015-Jul-22 20:33N 47°44' W 003°21'0 0.0
2015-Jul-22 19:33N 47°44' W 003°21'0 0.0
2015-Jul-22 18:33N 47°44' W 003°21'0 0.0
2015-Jul-22 17:33N 47°44' W 003°21'0 0.0
2015-Jul-22 16:33N 47°44' W 003°21'0 0.0
2015-Jul-22 15:34N 47°44' W 003°21'0 0.0
2015-Jul-22 14:34N 47°44' W 003°21'0 0.0
2015-Jul-22 13:33N 47°44' W 003°21'0 0.0
2015-Jul-22 12:33N 47°44' W 003°21'0 0.0
2015-Jul-22 11:34N 47°44' W 003°21'0 0.0
2015-Jul-22 10:33N 47°44' W 003°21'0 0.0
2015-Jul-22 09:33N 47°44' W 003°21'0 0.0
2015-Jul-22 08:34N 47°44' W 003°21'0 0.0
2015-Jul-22 07:34N 47°44' W 003°21'0 0.0
2015-Jul-22 06:33N 47°44' W 003°21'0 0.0
2015-Jul-22 05:33N 47°44' W 003°21'  
Track history (hours):
 
Tides and Currents Weather Stations Pressure Air Temp Water Temp Dewpoint Dewpoint Depression Visibility Wind Speed Wind Dir Waves Ship Positions

Michel Dsr

Last reported at 2015-Aug-01 04:33 UTC. Time now 2015-Aug-01 05:49 UTC.
Position N 46°09' W 001°13'.

Length 80 m; draft 6 m.

Type: Dredging. MMSI: 228344700.

Date/timePositionNaut miles runAvg speedWind from/ knotsBaromVisibWave heightAir tempDewpointWater temp
2015-Aug-01 04:33N 46°09' W 001°13'0 0.0
2015-Aug-01 03:33N 46°09' W 001°13'0 0.0
2015-Aug-01 02:33N 46°09' W 001°13'0 0.1
2015-Aug-01 01:33N 46°10' W 001°13'5 5.3
2015-Aug-01 00:33N 46°06' W 001°19'8 7.6
2015-Jul-31 23:33N 46°07' W 001°29'8 7.8
2015-Jul-31 22:33N 46°12' W 001°38'7 7.2
2015-Jul-31 21:33N 46°17' W 001°46'7 7.1
2015-Jul-31 20:33N 46°22' W 001°52'7 7.1
2015-Jul-31 19:33N 46°28' W 001°58'7 7.1
2015-Jul-31 18:33N 46°34' W 002°04'7 7.0
2015-Jul-31 17:34N 46°40' W 002°10'7 6.9
2015-Jul-31 16:34N 46°45' W 002°16'20 4.0
2015-Jul-31 11:32N 47°05' W 002°21'0 0.2
2015-Jul-31 10:25N 47°05' W 002°22'0 0.4
2015-Jul-31 09:33N 47°05' W 002°21'17 8.1
2015-Jul-31 07:30N 47°18' W 002°07'1212.3
2015-Jul-31 06:33N 47°15' W 001°51'9 9.2
2015-Jul-31 05:34N 47°12' W 001°38'0 0.0
2015-Jul-31 04:34N 47°12' W 001°38'0 0.0
2015-Jul-31 03:33N 47°12' W 001°38'5 4.9
2015-Jul-31 02:33N 47°12' W 001°45'1110.4
2015-Jul-31 01:32N 47°17' W 001°59'1010.4
2015-Jul-31 00:34N 47°15' W 002°13'10 9.5
2015-Jul-30 23:34N 47°07' W 002°21'2 2.0
2015-Jul-30 22:33N 47°05' W 002°22'0 0.1
2015-Jul-30 21:33N 47°05' W 002°22'1 0.6
2015-Jul-30 20:33N 47°05' W 002°21'12 5.4
2015-Jul-30 18:19N 47°15' W 002°13'5 0.5
2015-Jul-30 07:30N 47°18' W 002°07'0 0.0
2015-Jul-30 06:33N 47°18' W 002°07'0 0.0
2015-Jul-30 05:31N 47°18' W 002°07'0 0.0
2015-Jul-30 04:33N 47°18' W 002°07'0 0.0
2015-Jul-30 03:26N 47°18' W 002°07'0 0.0
2015-Jul-30 02:32N 47°18' W 002°07'0 0.0
2015-Jul-30 01:33N 47°18' W 002°07'0 0.0
2015-Jul-30 00:33N 47°18' W 002°07'0 0.0
2015-Jul-29 23:32N 47°18' W 002°07'0 0.0
2015-Jul-29 07:22N 47°18' W 002°07'0 0.0
2015-Jul-29 06:31N 47°18' W 002°07'0 0.0
2015-Jul-29 05:33N 47°18' W 002°07'0 0.0
2015-Jul-29 04:33N 47°18' W 002°07'0 0.0
2015-Jul-29 03:32N 47°18' W 002°07'0 0.0
2015-Jul-29 02:33N 47°18' W 002°07'0 0.0
2015-Jul-29 01:33N 47°18' W 002°07'0 0.0
2015-Jul-29 00:33N 47°18' W 002°07'0 0.0
2015-Jul-28 23:33N 47°18' W 002°07'0 0.0
2015-Jul-28 22:33N 47°18' W 002°07'0 0.0
2015-Jul-28 21:32N 47°18' W 002°07'0 0.0
2015-Jul-28 16:33N 47°18' W 002°07'0 0.0
2015-Jul-28 07:07N 47°18' W 002°07'0 0.0
2015-Jul-27 21:09N 47°18' W 002°07'0 0.0
2015-Jul-27 15:24N 47°18' W 002°07'910.8
2015-Jul-27 14:34N 47°17' W 001°54'12 5.8
2015-Jul-27 12:30N 47°12' W 001°38'0 0.0
2015-Jul-27 11:32N 47°12' W 001°38'0 0.0
2015-Jul-27 10:28N 47°12' W 001°38'10 9.5
2015-Jul-27 09:25N 47°16' W 001°51'1310.5
2015-Jul-27 08:10N 47°17' W 002°10'711.5
2015-Jul-27 07:33N 47°12' W 002°17'7 6.6
2015-Jul-27 06:28N 47°05' W 002°22'0 0.5
2015-Jul-27 05:24N 47°05' W 002°21'0 0.0
2015-Jul-27 04:32N 47°05' W 002°21'0 0.0
2015-Jul-27 03:33N 47°05' W 002°21'9 6.0
2015-Jul-27 02:06N 47°13' W 002°16'611.5
2015-Jul-27 01:33N 47°18' W 002°09'2 0.1
2015-Jul-26 13:06N 47°18' W 002°07'0 0.0
2015-Jul-26 06:06N 47°18' W 002°07'0 0.0
2015-Jul-26 03:27N 47°18' W 002°07'0 0.0
2015-Jul-26 02:31N 47°18' W 002°07'0 0.0
2015-Jul-26 01:33N 47°18' W 002°07'0 0.0
2015-Jul-26 00:33N 47°18' W 002°07'0 0.0
2015-Jul-25 23:33N 47°18' W 002°07'0 0.0
2015-Jul-25 22:33N 47°18' W 002°07'0 0.0
2015-Jul-25 21:33N 47°18' W 002°07'0 0.0
2015-Jul-25 20:33N 47°18' W 002°07'0 0.0
2015-Jul-25 19:33N 47°18' W 002°07'8 6.8
2015-Jul-25 18:21N 47°13' W 002°16'911.1
2015-Jul-25 17:32N 47°05' W 002°21'1 0.4
2015-Jul-25 16:20N 47°05' W 002°22'0 0.2
2015-Jul-25 15:33N 47°05' W 002°22'8 0.4
2015-Jul-24 17:29N 47°13' W 002°17'9 9.1
2015-Jul-24 16:33N 47°05' W 002°21'0 0.1
2015-Jul-24 15:32N 47°05' W 002°21'0 0.2
2015-Jul-24 14:12N 47°05' W 002°22'0 0.5
2015-Jul-24 13:32N 47°05' W 002°21'25 8.5
2015-Jul-24 10:33N 47°16' W 002°54'1010.4
2015-Jul-24 09:34N 47°23' W 003°06'9 8.6
2015-Jul-24 08:33N 47°31' W 003°13'9 9.2
2015-Jul-24 07:33N 47°38' W 003°20'6 6.0
2015-Jul-24 06:33N 47°44' W 003°21'0 0.0
2015-Jul-24 05:33N 47°44' W 003°21'0 0.0
2015-Jul-24 04:33N 47°44' W 003°21'0 0.0
2015-Jul-24 03:33N 47°44' W 003°21'0 0.0
2015-Jul-24 02:33N 47°44' W 003°21'0 0.0
2015-Jul-24 01:33N 47°44' W 003°21'0 0.0
2015-Jul-24 00:33N 47°44' W 003°21'0 0.0
2015-Jul-23 23:33N 47°44' W 003°21'0 0.0
2015-Jul-23 22:33N 47°44' W 003°21'0 0.0
2015-Jul-23 21:33N 47°44' W 003°21'0 0.0
2015-Jul-23 20:33N 47°44' W 003°21'0 0.0
2015-Jul-23 19:33N 47°44' W 003°21'0 0.0
2015-Jul-23 18:33N 47°44' W 003°21'0 0.0
2015-Jul-23 17:33N 47°44' W 003°21'0 0.0
2015-Jul-23 16:33N 47°44' W 003°21'0 0.0
2015-Jul-23 15:33N 47°44' W 003°21'0 0.0
2015-Jul-23 14:33N 47°44' W 003°21'0 0.0
2015-Jul-23 13:33N 47°44' W 003°21'0 0.0
2015-Jul-23 12:33N 47°44' W 003°21'0 0.0
2015-Jul-23 11:33N 47°44' W 003°21'0 0.0
2015-Jul-23 10:33N 47°44' W 003°21'0 0.0
2015-Jul-23 09:33N 47°44' W 003°21'0 0.0
2015-Jul-23 08:33N 47°44' W 003°21'0 0.0
2015-Jul-23 07:33N 47°44' W 003°21'0 0.0
2015-Jul-23 06:33N 47°44' W 003°21'0 0.0
2015-Jul-23 05:33N 47°44' W 003°21'0 0.0
2015-Jul-23 04:33N 47°44' W 003°21'0 0.0
2015-Jul-23 03:33N 47°44' W 003°21'0 0.0
2015-Jul-23 02:33N 47°44' W 003°21'0 0.0
2015-Jul-23 01:33N 47°44' W 003°21'0 0.0
2015-Jul-23 00:33N 47°44' W 003°21'0 0.0
2015-Jul-22 23:33N 47°44' W 003°21'0 0.0
2015-Jul-22 22:33N 47°44' W 003°21'0 0.0
2015-Jul-22 21:33N 47°44' W 003°21'0 0.0
2015-Jul-22 20:33N 47°44' W 003°21'0 0.0
2015-Jul-22 19:33N 47°44' W 003°21'0 0.0
2015-Jul-22 18:33N 47°44' W 003°21'0 0.0
2015-Jul-22 17:33N 47°44' W 003°21'0 0.0
2015-Jul-22 16:33N 47°44' W 003°21'0 0.0
2015-Jul-22 15:34N 47°44' W 003°21'0 0.0
2015-Jul-22 14:34N 47°44' W 003°21'0 0.0
2015-Jul-22 13:33N 47°44' W 003°21'0 0.0
2015-Jul-22 12:33N 47°44' W 003°21'0 0.0
2015-Jul-22 11:34N 47°44' W 003°21'0 0.0
2015-Jul-22 10:33N 47°44' W 003°21'0 0.0
2015-Jul-22 09:33N 47°44' W 003°21'0 0.0
2015-Jul-22 08:34N 47°44' W 003°21'0 0.0
2015-Jul-22 07:34N 47°44' W 003°21'0 0.0
2015-Jul-22 06:33N 47°44' W 003°21'0 0.0
2015-Jul-22 05:33N 47°44' W 003°21'  

Dump ship's entire track history